Buoy 33880

sailwx.info

Track history (hours):
 
Tides and Currents Weather Stations Pressure Air Temp Water Temp Dewpoint Dewpoint Depression Visibility Wind Speed Wind Dir Waves Ship Positions

Drifting buoy 33880

Last reported at 2017-Aug-16 22:00 UTC. Time now 2017-Aug-16 23:42 UTC.
Position S 33°59' W 016°49'.

Date/timePositionNaut miles runAvg speedWind from/ knotsBaromVisibWave heightAir tempDewpointWater temp
2017-Aug-16 22:00S 33°59' W 016°49'0 0.5
2017-Aug-16 21:00S 33°59' W 016°48'1 0.8
2017-Aug-16 20:00S 33°59' W 016°47'1 0.8
2017-Aug-16 19:00S 33°59' W 016°48'1 1.0
2017-Aug-16 18:00S 33°59' W 016°47'3 3.1
2017-Aug-16 17:00S 33°57' W 016°44'3 3.1
2017-Aug-16 16:00S 33°59' W 016°47'4 0.8
2017-Aug-16 11:00S 33°56' W 016°43'3 0.7
2017-Aug-16 07:00S 33°55' W 016°40'0 0.0
2017-Aug-16 06:00S 33°55' W 016°40'1 1.5
2017-Aug-16 05:00S 33°55' W 016°38'1 1.2
2017-Aug-16 04:00S 33°55' W 016°37'0 0.0
2017-Aug-16 02:00S 33°55' W 016°37'2 0.8
2017-Aug-16 00:00S 33°54' W 016°35'1 0.6
2017-Aug-15 23:00S 33°55' W 016°35'1 1.2
2017-Aug-15 22:00S 33°54' W 016°34'1 1.2
2017-Aug-15 21:00S 33°55' W 016°32'0 0.0
2017-Aug-15 20:00S 33°55' W 016°32'0 0.5
2017-Aug-15 19:00S 33°55' W 016°32'4 2.2
2017-Aug-15 17:00S 33°51' W 016°29'0 0.0
2017-Aug-15 16:00S 33°51' W 016°29'0 0.1
2017-Aug-15 11:00S 33°51' W 016°28'0 0.5
2017-Aug-15 10:00S 33°51' W 016°29'1 1.5
2017-Aug-15 09:00S 33°51' W 016°27'1 0.6
2017-Aug-15 08:00S 33°50' W 016°27'1 1.5
2017-Aug-15 07:00S 33°50' W 016°25'1 1.2
2017-Aug-15 06:00S 33°50' W 016°24'1 0.3
2017-Aug-15 02:00S 33°49' W 016°23'3 1.3
2017-Aug-15 00:00S 33°49' W 016°20'0 0.5
2017-Aug-14 23:00S 33°49' W 016°19'2 2.1
2017-Aug-14 22:00S 33°48' W 016°17'0 0.0
2017-Aug-14 21:00S 33°48' W 016°17'1 0.8
2017-Aug-14 20:00S 33°49' W 016°16'2 1.0
2017-Aug-14 18:00S 33°48' W 016°14'1 0.8
2017-Aug-14 17:00S 33°47' W 016°13'2 0.8
2017-Aug-14 15:00S 33°48' W 016°11'0 0.0
2017-Aug-14 14:00S 33°48' W 016°11'5 1.3
2017-Aug-14 10:00S 33°47' W 016°05'3 1.5
2017-Aug-14 08:00S 33°47' W 016°02'2 1.0
2017-Aug-14 06:00S 33°47' W 015°59'0 0.2
2017-Aug-14 03:00S 33°47' W 015°59'0 0.0
2017-Aug-14 02:00S 33°47' W 015°59'2 0.5
2017-Aug-13 23:00S 33°47' W 015°57'0 0.0
2017-Aug-13 22:00S 33°47' W 015°57'1 0.4
2017-Aug-13 19:00S 33°48' W 015°56'1 0.8
2017-Aug-13 18:00S 33°49' W 015°56'1 0.6
2017-Aug-13 17:00S 33°49' W 015°56'0 0.0
2017-Aug-13 15:00S 33°49' W 015°56'1 0.2
2017-Aug-13 10:00S 33°49' W 015°55'1 0.5
2017-Aug-13 08:00S 33°49' W 015°53'1 1.2
2017-Aug-13 07:00S 33°49' W 015°52'0 0.0
2017-Aug-13 06:00S 33°49' W 015°52'0 0.0
2017-Aug-13 04:00S 33°49' W 015°52'0 0.0
2017-Aug-13 03:00S 33°49' W 015°52'0 0.0
2017-Aug-13 02:00S 33°49' W 015°52'2 1.0
2017-Aug-13 00:00S 33°47' W 015°54'1 0.8
2017-Aug-12 23:00S 33°47' W 015°53'1 1.3
2017-Aug-12 22:00S 33°46' W 015°54'0 0.0
2017-Aug-12 21:00S 33°46' W 015°54'1 0.8
2017-Aug-12 20:00S 33°45' W 015°55'1 1.2
2017-Aug-12 19:00S 33°44' W 015°53'1 0.3
2017-Aug-12 17:00S 33°44' W 015°53'1 0.3
2017-Aug-12 15:00S 33°43' W 015°53'4 1.1
2017-Aug-12 11:00S 33°39' W 015°53'1 1.2
2017-Aug-12 10:00S 33°38' W 015°53'0 0.0
2017-Aug-12 09:00S 33°38' W 015°53'1 0.6
2017-Aug-12 08:00S 33°38' W 015°53'1 0.8
2017-Aug-12 07:00S 33°38' W 015°52'1 0.6
2017-Aug-12 05:00S 33°37' W 015°53'0 0.0
2017-Aug-12 03:00S 33°37' W 015°53'0 0.0
2017-Aug-12 02:00S 33°37' W 015°53'3 0.8
2017-Aug-11 22:00S 33°34' W 015°54'1 0.8
2017-Aug-11 21:00S 33°34' W 015°55'0 0.0
2017-Aug-11 20:00S 33°34' W 015°55'2 1.6
2017-Aug-11 19:00S 33°32' W 015°53'2 1.6
2017-Aug-11 18:00S 33°32' W 015°52'2 0.8
2017-Aug-11 16:00S 33°31' W 015°50'0 0.0
2017-Aug-11 15:00S 33°31' W 015°50'5 1.4
2017-Aug-11 11:00S 33°28' W 015°44'2 0.8
2017-Aug-11 09:00S 33°29' W 015°43'3 1.5
2017-Aug-11 07:00S 33°28' W 015°40'3 3.1
2017-Aug-11 06:00S 33°26' W 015°37'2 1.6
2017-Aug-11 05:00S 33°26' W 015°39'5 1.0
2017-Aug-11 00:00S 33°24' W 015°34'1 0.5
2017-Aug-10 23:00S 33°24' W 015°33'1 0.8
2017-Aug-10 22:00S 33°23' W 015°32'1 1.0
2017-Aug-10 21:00S 33°23' W 015°31'2 0.5
2017-Aug-10 18:00S 33°24' W 015°29'1 0.8
2017-Aug-10 17:00S 33°23' W 015°29'0 0.0
2017-Aug-10 16:00S 33°23' W 015°29'0 0.0
2017-Aug-10 15:00S 33°23' W 015°29'2 0.5
2017-Aug-10 10:00S 33°22' W 015°26'1 0.6
2017-Aug-10 09:00S 33°22' W 015°26'0 0.0
2017-Aug-10 08:00S 33°22' W 015°26'0 0.0
2017-Aug-10 07:00S 33°22' W 015°26'2 1.6
2017-Aug-10 06:00S 33°22' W 015°25'2 0.6
2017-Aug-10 03:00S 33°24' W 015°25'0 0.0
2017-Aug-10 00:00S 33°24' W 015°25'1 0.8
2017-Aug-09 23:00S 33°25' W 015°25'1 0.6
2017-Aug-09 22:00S 33°25' W 015°25'2 0.5
2017-Aug-09 19:00S 33°26' W 015°26'1 0.6
2017-Aug-09 18:00S 33°26' W 015°26'1 1.2
2017-Aug-09 17:00S 33°27' W 015°28'1 0.5
2017-Aug-09 16:00S 33°27' W 015°28'0 0.0
2017-Aug-09 15:00S 33°27' W 015°28'3 0.6
2017-Aug-09 11:00S 33°28' W 015°31'1 0.5
2017-Aug-09 10:00S 33°28' W 015°32'0 0.0
2017-Aug-09 08:00S 33°28' W 015°32'1 0.3
2017-Aug-09 06:00S 33°28' W 015°31'2 2.1
2017-Aug-09 05:00S 33°29' W 015°32'0 0.0
2017-Aug-09 04:00S 33°29' W 015°32'0 0.0
2017-Aug-09 03:00S 33°29' W 015°32'1 0.1
2017-Aug-08 23:00S 33°29' W 015°33'1 0.5
2017-Aug-08 22:00S 33°29' W 015°34'2 1.5
2017-Aug-08 21:00S 33°29' W 015°35'2 0.8
2017-Aug-08 19:00S 33°29' W 015°37'1 0.8
2017-Aug-08 18:00S 33°30' W 015°37'2 1.6
2017-Aug-08 17:00S 33°31' W 015°38'3 2.8
2017-Aug-08 16:00S 33°32' W 015°41'2 0.3
2017-Aug-08 10:00S 33°31' W 015°43'1 0.8
2017-Aug-08 09:00S 33°31' W 015°44'0 0.0
2017-Aug-08 08:00S 33°31' W 015°44'1 0.5
2017-Aug-08 07:00S 33°31' W 015°43'6 2.1
2017-Aug-08 04:00S 33°37' W 015°47'0 0.0
2017-Aug-08 02:00S 33°37' W 015°47'0 0.2
2017-Aug-08 00:00S 33°37' W 015°47'1 1.2
2017-Aug-07 23:00S 33°37' W 015°48'2 1.6
2017-Aug-07 22:00S 33°38' W 015°49'0 0.0
2017-Aug-07 21:00S 33°38' W 015°49'3 1.5
2017-Aug-07 19:00S 33°38' W 015°53'3 2.6
2017-Aug-07 18:00S 33°38' W 015°56'0 0.0
2017-Aug-07 16:00S 33°38' W 015°56'7 1.4
2017-Aug-07 11:00S 33°35' W 016°03'4 0.9
2017-Aug-07 07:00S 33°31' W 016°02'1 0.2
2017-Aug-07 04:00S 33°31' W 016°02'2 0.9
2017-Aug-07 02:00S 33°29' W 016°02'1 0.3
2017-Aug-06 23:00S 33°28' W 016°03'0 0.0
2017-Aug-06 22:00S 33°28' W 016°03'  
Track history (hours):
 
Tides and Currents Weather Stations Pressure Air Temp Water Temp Dewpoint Dewpoint Depression Visibility Wind Speed Wind Dir Waves Ship Positions

Drifting buoy 33880

Last reported at 2017-Aug-16 22:00 UTC. Time now 2017-Aug-16 23:42 UTC.
Position S 33°59' W 016°49'.

Date/timePositionNaut miles runAvg speedWind from/ knotsBaromVisibWave heightAir tempDewpointWater temp
2017-Aug-16 22:00S 33°59' W 016°49'0 0.5
2017-Aug-16 21:00S 33°59' W 016°48'1 0.8
2017-Aug-16 20:00S 33°59' W 016°47'1 0.8
2017-Aug-16 19:00S 33°59' W 016°48'1 1.0
2017-Aug-16 18:00S 33°59' W 016°47'3 3.1
2017-Aug-16 17:00S 33°57' W 016°44'3 3.1
2017-Aug-16 16:00S 33°59' W 016°47'4 0.8
2017-Aug-16 11:00S 33°56' W 016°43'3 0.7
2017-Aug-16 07:00S 33°55' W 016°40'0 0.0
2017-Aug-16 06:00S 33°55' W 016°40'1 1.5
2017-Aug-16 05:00S 33°55' W 016°38'1 1.2
2017-Aug-16 04:00S 33°55' W 016°37'0 0.0
2017-Aug-16 02:00S 33°55' W 016°37'2 0.8
2017-Aug-16 00:00S 33°54' W 016°35'1 0.6
2017-Aug-15 23:00S 33°55' W 016°35'1 1.2
2017-Aug-15 22:00S 33°54' W 016°34'1 1.2
2017-Aug-15 21:00S 33°55' W 016°32'0 0.0
2017-Aug-15 20:00S 33°55' W 016°32'0 0.5
2017-Aug-15 19:00S 33°55' W 016°32'4 2.2
2017-Aug-15 17:00S 33°51' W 016°29'0 0.0
2017-Aug-15 16:00S 33°51' W 016°29'0 0.1
2017-Aug-15 11:00S 33°51' W 016°28'0 0.5
2017-Aug-15 10:00S 33°51' W 016°29'1 1.5
2017-Aug-15 09:00S 33°51' W 016°27'1 0.6
2017-Aug-15 08:00S 33°50' W 016°27'1 1.5
2017-Aug-15 07:00S 33°50' W 016°25'1 1.2
2017-Aug-15 06:00S 33°50' W 016°24'1 0.3
2017-Aug-15 02:00S 33°49' W 016°23'3 1.3
2017-Aug-15 00:00S 33°49' W 016°20'0 0.5
2017-Aug-14 23:00S 33°49' W 016°19'2 2.1
2017-Aug-14 22:00S 33°48' W 016°17'0 0.0
2017-Aug-14 21:00S 33°48' W 016°17'1 0.8
2017-Aug-14 20:00S 33°49' W 016°16'2 1.0
2017-Aug-14 18:00S 33°48' W 016°14'1 0.8
2017-Aug-14 17:00S 33°47' W 016°13'2 0.8
2017-Aug-14 15:00S 33°48' W 016°11'0 0.0
2017-Aug-14 14:00S 33°48' W 016°11'5 1.3
2017-Aug-14 10:00S 33°47' W 016°05'3 1.5
2017-Aug-14 08:00S 33°47' W 016°02'2 1.0
2017-Aug-14 06:00S 33°47' W 015°59'0 0.2
2017-Aug-14 03:00S 33°47' W 015°59'0 0.0
2017-Aug-14 02:00S 33°47' W 015°59'2 0.5
2017-Aug-13 23:00S 33°47' W 015°57'0 0.0
2017-Aug-13 22:00S 33°47' W 015°57'1 0.4
2017-Aug-13 19:00S 33°48' W 015°56'1 0.8
2017-Aug-13 18:00S 33°49' W 015°56'1 0.6
2017-Aug-13 17:00S 33°49' W 015°56'0 0.0
2017-Aug-13 15:00S 33°49' W 015°56'1 0.2
2017-Aug-13 10:00S 33°49' W 015°55'1 0.5
2017-Aug-13 08:00S 33°49' W 015°53'1 1.2
2017-Aug-13 07:00S 33°49' W 015°52'0 0.0
2017-Aug-13 06:00S 33°49' W 015°52'0 0.0
2017-Aug-13 04:00S 33°49' W 015°52'0 0.0
2017-Aug-13 03:00S 33°49' W 015°52'0 0.0
2017-Aug-13 02:00S 33°49' W 015°52'2 1.0
2017-Aug-13 00:00S 33°47' W 015°54'1 0.8
2017-Aug-12 23:00S 33°47' W 015°53'1 1.3
2017-Aug-12 22:00S 33°46' W 015°54'0 0.0
2017-Aug-12 21:00S 33°46' W 015°54'1 0.8
2017-Aug-12 20:00S 33°45' W 015°55'1 1.2
2017-Aug-12 19:00S 33°44' W 015°53'1 0.3
2017-Aug-12 17:00S 33°44' W 015°53'1 0.3
2017-Aug-12 15:00S 33°43' W 015°53'4 1.1
2017-Aug-12 11:00S 33°39' W 015°53'1 1.2
2017-Aug-12 10:00S 33°38' W 015°53'0 0.0
2017-Aug-12 09:00S 33°38' W 015°53'1 0.6
2017-Aug-12 08:00S 33°38' W 015°53'1 0.8
2017-Aug-12 07:00S 33°38' W 015°52'1 0.6
2017-Aug-12 05:00S 33°37' W 015°53'0 0.0
2017-Aug-12 03:00S 33°37' W 015°53'0 0.0
2017-Aug-12 02:00S 33°37' W 015°53'3 0.8
2017-Aug-11 22:00S 33°34' W 015°54'1 0.8
2017-Aug-11 21:00S 33°34' W 015°55'0 0.0
2017-Aug-11 20:00S 33°34' W 015°55'2 1.6
2017-Aug-11 19:00S 33°32' W 015°53'2 1.6
2017-Aug-11 18:00S 33°32' W 015°52'2 0.8
2017-Aug-11 16:00S 33°31' W 015°50'0 0.0
2017-Aug-11 15:00S 33°31' W 015°50'5 1.4
2017-Aug-11 11:00S 33°28' W 015°44'2 0.8
2017-Aug-11 09:00S 33°29' W 015°43'3 1.5
2017-Aug-11 07:00S 33°28' W 015°40'3 3.1
2017-Aug-11 06:00S 33°26' W 015°37'2 1.6
2017-Aug-11 05:00S 33°26' W 015°39'5 1.0
2017-Aug-11 00:00S 33°24' W 015°34'1 0.5
2017-Aug-10 23:00S 33°24' W 015°33'1 0.8
2017-Aug-10 22:00S 33°23' W 015°32'1 1.0
2017-Aug-10 21:00S 33°23' W 015°31'2 0.5
2017-Aug-10 18:00S 33°24' W 015°29'1 0.8
2017-Aug-10 17:00S 33°23' W 015°29'0 0.0
2017-Aug-10 16:00S 33°23' W 015°29'0 0.0
2017-Aug-10 15:00S 33°23' W 015°29'2 0.5
2017-Aug-10 10:00S 33°22' W 015°26'1 0.6
2017-Aug-10 09:00S 33°22' W 015°26'0 0.0
2017-Aug-10 08:00S 33°22' W 015°26'0 0.0
2017-Aug-10 07:00S 33°22' W 015°26'2 1.6
2017-Aug-10 06:00S 33°22' W 015°25'2 0.6
2017-Aug-10 03:00S 33°24' W 015°25'0 0.0
2017-Aug-10 00:00S 33°24' W 015°25'1 0.8
2017-Aug-09 23:00S 33°25' W 015°25'1 0.6
2017-Aug-09 22:00S 33°25' W 015°25'2 0.5
2017-Aug-09 19:00S 33°26' W 015°26'1 0.6
2017-Aug-09 18:00S 33°26' W 015°26'1 1.2
2017-Aug-09 17:00S 33°27' W 015°28'1 0.5
2017-Aug-09 16:00S 33°27' W 015°28'0 0.0
2017-Aug-09 15:00S 33°27' W 015°28'3 0.6
2017-Aug-09 11:00S 33°28' W 015°31'1 0.5
2017-Aug-09 10:00S 33°28' W 015°32'0 0.0
2017-Aug-09 08:00S 33°28' W 015°32'1 0.3
2017-Aug-09 06:00S 33°28' W 015°31'2 2.1
2017-Aug-09 05:00S 33°29' W 015°32'0 0.0
2017-Aug-09 04:00S 33°29' W 015°32'0 0.0
2017-Aug-09 03:00S 33°29' W 015°32'1 0.1
2017-Aug-08 23:00S 33°29' W 015°33'1 0.5
2017-Aug-08 22:00S 33°29' W 015°34'2 1.5
2017-Aug-08 21:00S 33°29' W 015°35'2 0.8
2017-Aug-08 19:00S 33°29' W 015°37'1 0.8
2017-Aug-08 18:00S 33°30' W 015°37'2 1.6
2017-Aug-08 17:00S 33°31' W 015°38'3 2.8
2017-Aug-08 16:00S 33°32' W 015°41'2 0.3
2017-Aug-08 10:00S 33°31' W 015°43'1 0.8
2017-Aug-08 09:00S 33°31' W 015°44'0 0.0
2017-Aug-08 08:00S 33°31' W 015°44'1 0.5
2017-Aug-08 07:00S 33°31' W 015°43'6 2.1
2017-Aug-08 04:00S 33°37' W 015°47'0 0.0
2017-Aug-08 02:00S 33°37' W 015°47'0 0.2
2017-Aug-08 00:00S 33°37' W 015°47'1 1.2
2017-Aug-07 23:00S 33°37' W 015°48'2 1.6
2017-Aug-07 22:00S 33°38' W 015°49'0 0.0
2017-Aug-07 21:00S 33°38' W 015°49'3 1.5
2017-Aug-07 19:00S 33°38' W 015°53'3 2.6
2017-Aug-07 18:00S 33°38' W 015°56'0 0.0
2017-Aug-07 16:00S 33°38' W 015°56'7 1.4
2017-Aug-07 11:00S 33°35' W 016°03'4 0.9
2017-Aug-07 07:00S 33°31' W 016°02'1 0.2
2017-Aug-07 04:00S 33°31' W 016°02'2 0.9
2017-Aug-07 02:00S 33°29' W 016°02'1 0.3
2017-Aug-06 23:00S 33°28' W 016°03'0 0.0
2017-Aug-06 22:00S 33°28' W 016°03'  

Dump ship's entire track history